createdAt,value
2018-04-04T00:00:06.408Z,9.57
2018-04-04T00:02:33.859Z,8.00
2018-04-04T00:05:01.332Z,11.57
2018-04-04T00:07:28.804Z,8.60
2018-04-04T00:09:56.268Z,8.43
2018-04-04T00:12:23.727Z,6.80
2018-04-04T00:14:51.179Z,4.27
2018-04-04T00:17:18.647Z,5.77
2018-04-04T00:19:46.866Z,8.10
2018-04-04T00:22:14.336Z,11.65
2018-04-04T00:24:41.785Z,7.73
2018-04-04T00:27:09.246Z,12.20
2018-04-04T00:29:36.702Z,10.10
2018-04-04T00:32:04.160Z,11.90
2018-04-04T00:34:31.624Z,6.67
2018-04-04T00:36:59.095Z,7.90
2018-04-04T00:39:26.541Z,6.90
2018-04-04T00:41:54.798Z,10.97
2018-04-04T00:44:22.261Z,5.80
2018-04-04T00:46:49.730Z,6.30
2018-04-04T00:49:17.189Z,9.90
2018-04-04T00:51:44.654Z,7.73
2018-04-04T00:54:13.039Z,10.03
2018-04-04T00:56:40.501Z,7.33
2018-04-04T00:59:08.070Z,14.67
2018-04-04T01:01:35.530Z,11.77
2018-04-04T01:04:03.740Z,7.50
2018-04-04T01:06:31.207Z,15.90
2018-04-04T01:08:58.655Z,9.40
2018-04-04T01:11:26.878Z,7.60
2018-04-04T01:13:54.333Z,5.00
2018-04-04T01:16:21.804Z,6.43
2018-04-04T01:18:49.284Z,13.40
2018-04-04T01:21:17.508Z,8.27
2018-04-04T01:23:44.967Z,9.90
2018-04-04T01:26:12.431Z,12.90
2018-04-04T01:28:39.891Z,8.60
2018-04-04T01:31:07.476Z,8.43
2018-04-04T01:33:34.936Z,7.03
2018-04-04T01:36:02.390Z,8.37
2018-04-04T01:38:29.850Z,3.30
2018-04-04T01:40:57.333Z,14.67
2018-04-04T01:43:25.563Z,7.33
2018-04-04T01:45:53.024Z,9.47
2018-04-04T01:48:20.480Z,10.17
2018-04-04T01:50:47.948Z,7.00
2018-04-04T01:53:15.442Z,14.07
2018-04-04T01:55:43.676Z,10.52
2018-04-04T01:58:11.120Z,5.03
2018-04-04T02:00:38.615Z,10.83
2018-04-04T02:03:06.829Z,9.98
2018-04-04T02:05:34.557Z,7.00
2018-04-04T02:08:02.776Z,7.77
2018-04-04T02:10:30.229Z,9.57
2018-04-04T02:12:57.689Z,7.43
2018-04-04T02:15:25.167Z,7.77
2018-04-04T02:17:52.645Z,8.97
2018-04-04T02:20:20.876Z,6.47
2018-04-04T02:22:48.489Z,6.17
2018-04-04T02:25:15.944Z,7.27
2018-04-04T02:27:43.402Z,10.10
2018-04-04T02:30:10.880Z,7.33
2018-04-04T02:32:39.115Z,8.97
2018-04-04T02:35:06.718Z,11.07
2018-04-04T02:37:34.168Z,10.67
2018-04-04T02:40:02.405Z,6.93
2018-04-04T02:42:29.868Z,6.40
2018-04-04T02:44:57.379Z,15.50
2018-04-04T02:47:24.811Z,8.68
2018-04-04T02:49:52.272Z,10.43
2018-04-04T02:52:19.724Z,10.27
2018-04-04T02:54:47.188Z,5.90
2018-04-04T02:57:15.413Z,10.80
2018-04-04T02:59:42.873Z,8.77
2018-04-04T03:02:10.333Z,7.07
2018-04-04T03:04:37.785Z,8.93
2018-04-04T03:07:05.256Z,8.90
2018-04-04T03:09:32.725Z,7.70
2018-04-04T03:12:00.237Z,10.90
2018-04-04T03:14:27.682Z,5.97
2018-04-04T03:16:55.138Z,14.57
2018-04-04T03:19:22.594Z,10.55
2018-04-04T03:21:50.172Z,9.20
2018-04-04T03:24:17.639Z,7.57
2018-04-04T03:26:45.120Z,11.07
2018-04-04T03:29:12.570Z,14.10
2018-04-04T03:31:40.038Z,8.75
2018-04-04T03:34:07.484Z,9.17
2018-04-04T03:36:34.953Z,15.47
2018-04-04T03:39:02.404Z,10.63
2018-04-04T03:41:29.868Z,15.63
2018-04-04T03:43:57.320Z,13.13
2018-04-04T03:46:24.901Z,18.30
2018-04-04T03:48:52.369Z,15.47
2018-04-04T03:51:20.585Z,8.60
2018-04-04T03:53:48.052Z,10.33
2018-04-04T03:56:15.505Z,13.07
2018-04-04T03:58:42.971Z,11.50
2018-04-04T04:01:10.415Z,9.60
2018-04-04T04:03:37.903Z,6.47
2018-04-04T04:06:05.358Z,8.60
2018-04-04T04:08:32.825Z,11.23
2018-04-04T04:11:00.897Z,10.20
2018-04-04T04:13:28.355Z,14.83
2018-04-04T04:15:55.826Z,13.10
2018-04-04T04:18:23.284Z,10.07
2018-04-04T04:20:50.730Z,7.20
2018-04-04T04:23:18.201Z,9.77
2018-04-04T04:25:45.849Z,11.90
2018-04-04T04:28:13.298Z,6.83
2018-04-04T04:30:40.758Z,9.00
2018-04-04T04:33:08.222Z,9.10
2018-04-04T04:35:44.844Z,11.03
2018-04-04T04:38:12.300Z,10.80
2018-04-04T04:40:39.761Z,12.60
2018-04-04T04:43:07.223Z,10.47
2018-04-04T04:45:34.673Z,10.57
2018-04-04T04:48:02.135Z,12.30
2018-04-04T04:50:29.580Z,10.30
2018-04-04T04:52:57.043Z,6.73
2018-04-04T04:55:24.503Z,10.93
2018-04-04T04:57:51.963Z,7.87
2018-04-04T05:00:19.421Z,10.32
2018-04-04T05:02:46.888Z,16.00
2018-04-04T05:05:14.346Z,8.27
2018-04-04T05:07:41.818Z,11.57
2018-04-04T05:10:09.272Z,13.13
2018-04-04T05:12:36.711Z,9.30
2018-04-04T05:15:04.205Z,13.77
2018-04-04T05:17:31.641Z,14.03
2018-04-04T05:19:59.085Z,11.60
2018-04-04T05:22:26.553Z,25.37
2018-04-04T05:24:54.018Z,19.83
2018-04-04T05:27:21.487Z,24.87
2018-04-04T05:29:48.953Z,15.43
2018-04-04T05:32:17.721Z,19.33
2018-04-04T05:34:45.176Z,9.17
2018-04-04T05:37:12.632Z,14.70
2018-04-04T05:39:40.088Z,12.80
2018-04-04T05:42:07.562Z,19.63
2018-04-04T05:44:35.025Z,20.40
2018-04-04T05:47:02.485Z,25.87
2018-04-04T05:49:29.938Z,11.93
2018-04-04T05:51:57.388Z,18.77
2018-04-04T05:54:25.779Z,14.47
2018-04-04T05:56:53.249Z,16.53
2018-04-04T05:59:20.724Z,18.33
2018-04-04T06:01:48.937Z,17.70
2018-04-04T06:04:16.408Z,14.33
2018-04-04T06:06:43.887Z,17.20
2018-04-04T06:09:11.355Z,16.50
2018-04-04T06:11:39.590Z,18.40
2018-04-04T06:14:07.044Z,15.10
2018-04-04T06:16:34.510Z,22.43
2018-04-04T06:19:01.981Z,14.53
2018-04-04T06:21:29.451Z,19.60
2018-04-04T06:23:56.902Z,28.13
2018-04-04T06:26:24.376Z,33.10
2018-04-04T06:28:51.828Z,29.20
2018-04-04T06:31:20.069Z,18.80
2018-04-04T06:33:47.537Z,15.80
2018-04-04T06:36:14.996Z,17.40
2018-04-04T06:38:43.444Z,12.53
2018-04-04T06:41:10.913Z,16.67
2018-04-04T06:43:38.362Z,16.57
2018-04-04T06:46:05.833Z,19.83
2018-04-04T06:48:33.288Z,18.40
2018-04-04T06:51:00.780Z,28.80
2018-04-04T06:53:28.264Z,24.40
2018-04-04T06:55:56.522Z,15.33
2018-04-04T06:58:23.979Z,12.30
2018-04-04T07:00:52.221Z,34.97
2018-04-04T07:03:19.676Z,29.10
2018-04-04T07:05:47.145Z,17.93
2018-04-04T07:08:14.709Z,23.87
2018-04-04T07:10:42.952Z,34.53
2018-04-04T07:13:10.406Z,24.10
2018-04-04T07:15:39.032Z,28.40
2018-04-04T07:18:06.497Z,26.10
2018-04-04T07:20:33.942Z,26.90
2018-04-04T07:23:01.406Z,29.33
2018-04-04T07:25:28.869Z,19.47
2018-04-04T07:27:56.335Z,22.47
2018-04-04T07:30:23.856Z,17.50
2018-04-04T07:32:51.323Z,25.10
2018-04-04T07:35:18.832Z,33.25
2018-04-04T07:37:46.308Z,26.17
2018-04-04T07:40:13.779Z,31.07
2018-04-04T07:42:41.244Z,16.07
2018-04-04T07:45:08.703Z,21.80
2018-04-04T07:47:36.284Z,10.13
2018-04-04T07:50:03.748Z,18.13
2018-04-04T07:52:31.221Z,15.20
2018-04-04T07:54:59.453Z,15.33
2018-04-04T07:57:26.933Z,20.77
2018-04-04T07:59:54.422Z,10.83
2018-04-04T08:02:22.668Z,16.00
2018-04-04T08:04:51.648Z,19.63
2018-04-04T08:07:19.126Z,22.00
2018-04-04T08:09:46.595Z,19.87
2018-04-04T08:12:14.045Z,27.03
2018-04-04T08:14:42.279Z,10.63
2018-04-04T08:17:09.740Z,16.47
2018-04-04T08:19:37.203Z,27.03
2018-04-04T08:22:04.680Z,19.50
2018-04-04T08:24:33.664Z,29.33
2018-04-04T08:27:01.112Z,20.30
2018-04-04T08:29:28.580Z,27.80
2018-04-04T08:31:56.052Z,30.17
2018-04-04T08:34:23.529Z,17.67
2018-04-04T08:36:50.965Z,25.30
2018-04-04T08:39:18.434Z,14.50
2018-04-04T08:41:46.653Z,17.13
2018-04-04T08:44:14.135Z,16.10
2018-04-04T08:46:41.588Z,22.73
2018-04-04T08:49:09.068Z,25.10
2018-04-04T08:51:36.527Z,10.57
2018-04-04T08:54:03.975Z,9.18
2018-04-04T08:56:31.452Z,28.90
2018-04-04T08:58:59.698Z,17.17
2018-04-04T09:01:27.204Z,19.90
2018-04-04T09:03:55.757Z,13.60
2018-04-04T09:06:23.247Z,26.93
2018-04-04T09:08:51.519Z,22.10
2018-04-04T09:11:19.774Z,9.77
2018-04-04T09:13:48.054Z,11.20
2018-04-04T09:16:15.801Z,11.18
2018-04-04T09:18:44.087Z,14.67
2018-04-04T09:21:11.565Z,23.67
2018-04-04T09:23:39.822Z,21.40
2018-04-04T09:26:07.538Z,15.63
2018-04-04T09:28:35.095Z,16.80
2018-04-04T09:31:02.607Z,14.63
2018-04-04T09:33:30.106Z,26.77
2018-04-04T09:35:57.586Z,10.70
2018-04-04T09:38:25.093Z,14.90
2018-04-04T09:40:53.407Z,20.30
2018-04-04T09:43:20.850Z,17.97
2018-04-04T09:45:48.342Z,10.40
2018-04-04T09:48:16.083Z,9.93
2018-04-04T09:50:43.594Z,12.77
2018-04-04T09:53:11.118Z,16.20
2018-04-04T09:55:38.610Z,18.60
2018-04-04T09:58:06.154Z,13.43
2018-04-04T10:00:39.449Z,17.23
2018-04-04T10:03:06.946Z,12.70
2018-04-04T10:05:35.230Z,13.47
2018-04-04T10:08:02.807Z,8.60
2018-04-04T10:10:30.307Z,10.70
2018-04-04T10:12:57.803Z,10.57
2018-04-04T10:15:26.126Z,11.10
2018-04-04T10:17:53.635Z,12.90
2018-04-04T10:20:21.901Z,10.07
2018-04-04T10:22:50.157Z,10.80
2018-04-04T10:25:17.660Z,9.03
2018-04-04T10:27:45.153Z,4.83
2018-04-04T10:30:12.643Z,11.43
2018-04-04T10:32:40.918Z,4.13
2018-04-04T10:35:08.642Z,7.93
2018-04-04T10:37:36.147Z,9.37
2018-04-04T10:40:03.678Z,9.47
2018-04-04T10:42:31.222Z,3.47
2018-04-04T10:44:58.739Z,9.27
2018-04-04T10:47:26.995Z,5.77
2018-04-04T10:49:54.526Z,15.50
2018-04-04T10:52:22.006Z,7.23
2018-04-04T10:54:50.683Z,5.00
2018-04-04T10:57:18.171Z,4.97
2018-04-04T10:59:46.450Z,5.00
2018-04-04T11:02:14.711Z,8.17
2018-04-04T11:04:42.215Z,6.63
2018-04-04T11:07:09.766Z,9.02
2018-04-04T11:09:38.003Z,5.93
2018-04-04T11:12:05.487Z,11.93
2018-04-04T11:14:32.972Z,5.80
2018-04-04T11:17:00.919Z,8.57
2018-04-04T11:19:28.411Z,9.20
2018-04-04T11:21:55.914Z,11.07
2018-04-04T11:24:24.165Z,8.10
2018-04-04T11:26:51.664Z,3.03
2018-04-04T11:29:19.154Z,7.17
2018-04-04T11:31:46.665Z,5.10
2018-04-04T11:34:14.923Z,5.40
2018-04-04T11:36:42.425Z,3.77
2018-04-04T11:39:10.771Z,11.97
2018-04-04T11:41:38.349Z,13.07
2018-04-04T11:44:06.601Z,5.73
2018-04-04T11:46:34.920Z,6.30
2018-04-04T11:49:02.412Z,5.07
2018-04-04T11:51:29.937Z,6.07
2018-04-04T11:53:58.189Z,3.90
2018-04-04T11:56:26.459Z,5.07
2018-04-04T11:58:54.731Z,5.27
2018-04-04T12:01:23.001Z,5.53
2018-04-04T12:03:50.489Z,5.37
2018-04-04T12:06:18.032Z,9.53
2018-04-04T12:08:45.933Z,11.57
2018-04-04T12:11:13.427Z,16.40
2018-04-04T12:13:40.923Z,3.85
2018-04-04T12:16:08.490Z,8.13
2018-04-04T12:18:35.991Z,3.30
2018-04-04T12:21:03.503Z,6.20
2018-04-04T12:23:32.698Z,4.63
2018-04-04T12:26:00.970Z,1.93
2018-04-04T12:28:29.241Z,5.27
2018-04-04T12:30:57.513Z,5.33
2018-04-04T12:33:25.789Z,7.53
2018-04-04T12:35:54.065Z,8.05
2018-04-04T12:38:22.332Z,6.10
2018-04-04T12:40:49.833Z,6.80
2018-04-04T12:43:17.338Z,10.10
2018-04-04T12:45:44.898Z,5.00
2018-04-04T12:48:12.379Z,6.80
2018-04-04T12:50:40.636Z,6.83
2018-04-04T12:53:08.163Z,6.30
2018-04-04T12:55:35.722Z,4.27
2018-04-04T12:58:03.964Z,11.80
2018-04-04T13:00:31.483Z,14.17
2018-04-04T13:02:58.989Z,13.43
2018-04-04T13:05:26.500Z,7.97
2018-04-04T13:07:54.835Z,11.67
2018-04-04T13:10:22.322Z,10.63
2018-04-04T13:12:49.852Z,16.80
2018-04-04T13:15:17.368Z,11.67
2018-04-04T13:17:44.873Z,5.87
2018-04-04T13:20:12.389Z,13.25
2018-04-04T13:22:39.881Z,7.20
2018-04-04T13:25:07.391Z,11.20
2018-04-04T13:27:34.904Z,9.47
2018-04-04T13:30:02.419Z,5.53
2018-04-04T13:32:29.936Z,4.40
2018-04-04T13:34:57.445Z,2.33
2018-04-04T13:37:25.750Z,4.50
2018-04-04T13:39:53.243Z,2.27
2018-04-04T13:42:20.741Z,0.90
2018-04-04T13:44:49.018Z,1.67
2018-04-04T13:47:24.217Z,1.70
2018-04-04T13:49:51.722Z,2.30
2018-04-04T13:52:20.003Z,3.00
2018-04-04T13:54:47.528Z,0.80
2018-04-04T13:57:15.034Z,0.77
2018-04-04T13:59:42.543Z,0.93
2018-04-04T14:02:10.031Z,0.90
2018-04-04T14:04:38.323Z,2.08
2018-04-04T14:07:05.822Z,3.30
2018-04-04T14:09:33.358Z,1.10
2018-04-04T14:12:00.911Z,1.30
2018-04-04T14:14:28.424Z,1.60
2018-04-04T14:16:55.911Z,3.63
2018-04-04T14:19:23.424Z,3.80
2018-04-04T14:21:50.923Z,1.30
2018-04-04T14:24:18.431Z,2.67
2018-04-04T14:26:46.716Z,2.90
2018-04-04T14:29:14.327Z,2.70
2018-04-04T14:31:41.806Z,1.30
2018-04-04T14:34:09.289Z,2.70
2018-04-04T14:36:36.863Z,1.10
2018-04-04T14:39:04.355Z,2.10
2018-04-04T14:41:31.870Z,5.30
2018-04-04T14:43:59.364Z,2.63
2018-04-04T14:46:27.593Z,2.73
2018-04-04T14:48:55.060Z,1.40
2018-04-04T14:51:22.504Z,1.37
2018-04-04T14:53:49.984Z,4.20
2018-04-04T14:56:17.449Z,2.63
2018-04-04T14:58:45.051Z,2.00
2018-04-04T15:01:12.512Z,1.53
2018-04-04T15:03:39.974Z,1.20
2018-04-04T15:06:07.453Z,1.23
2018-04-04T15:08:34.908Z,0.70
2018-04-04T15:11:02.365Z,0.82
2018-04-04T15:13:29.825Z,1.30
2018-04-04T15:15:57.293Z,0.80
2018-04-04T15:18:24.744Z,1.77
2018-04-04T15:20:52.207Z,1.13
2018-04-04T15:23:19.658Z,2.70
2018-04-04T15:25:47.161Z,4.37
2018-04-04T15:28:14.636Z,1.40
2018-04-04T15:30:42.084Z,1.87
2018-04-04T15:33:09.548Z,0.80
2018-04-04T15:35:36.996Z,1.70
2018-04-04T15:38:04.448Z,1.00
2018-04-04T15:40:31.909Z,1.10
2018-04-04T15:42:59.360Z,1.90
2018-04-04T15:45:26.826Z,1.52
2018-04-04T15:47:54.280Z,2.30
2018-04-04T15:50:21.856Z,1.50
2018-04-04T15:52:55.840Z,1.30
2018-04-04T15:55:24.080Z,1.60
2018-04-04T15:57:51.544Z,1.50
2018-04-04T16:00:19.016Z,1.67
2018-04-04T16:02:47.258Z,1.83
2018-04-04T16:05:14.739Z,1.43
2018-04-04T16:07:42.216Z,0.93
2018-04-04T16:10:10.436Z,1.20
2018-04-04T16:12:37.911Z,2.00
2018-04-04T16:15:05.361Z,3.27
2018-04-04T16:17:32.813Z,1.10
2018-04-04T16:20:00.273Z,2.30
2018-04-04T16:22:27.745Z,3.30
2018-04-04T16:24:55.216Z,1.70
2018-04-04T16:27:22.684Z,1.50
2018-04-04T16:29:50.900Z,1.00
2018-04-04T16:32:18.356Z,1.27
2018-04-04T16:34:45.837Z,2.57
2018-04-04T16:37:13.306Z,1.40
2018-04-04T16:39:40.769Z,3.43
2018-04-04T16:42:08.236Z,1.63
2018-04-04T16:44:35.686Z,1.10
2018-04-04T16:47:03.136Z,1.70
2018-04-04T16:49:30.584Z,1.83
2018-04-04T16:51:58.040Z,1.60
2018-04-04T16:54:25.574Z,1.40
2018-04-04T16:56:53.012Z,1.30
2018-04-04T16:59:21.238Z,3.33
2018-04-04T17:01:48.930Z,1.60
2018-04-04T17:04:16.385Z,1.70
2018-04-04T17:06:43.946Z,1.53
2018-04-04T17:09:12.917Z,2.67
2018-04-04T17:11:40.388Z,1.53
2018-04-04T17:14:07.831Z,1.87
2018-04-04T17:16:35.293Z,2.20
2018-04-04T17:19:02.850Z,7.57
2018-04-04T17:21:30.302Z,1.10
2018-04-04T17:23:57.791Z,1.50
2018-04-04T17:26:26.040Z,1.40
2018-04-04T17:28:53.500Z,3.00
2018-04-04T17:31:21.720Z,13.27
2018-04-04T17:33:49.202Z,1.70
2018-04-04T17:36:16.654Z,1.42
2018-04-04T17:38:44.116Z,1.73
2018-04-04T17:41:11.557Z,2.00
2018-04-04T17:43:39.044Z,1.90
2018-04-04T17:46:06.500Z,1.73
2018-04-04T17:48:33.972Z,1.40
2018-04-04T17:51:01.425Z,3.63
2018-04-04T17:53:28.891Z,2.10
2018-04-04T17:55:56.332Z,1.10
2018-04-04T17:58:23.903Z,1.30
2018-04-04T18:00:51.370Z,1.50
2018-04-04T18:03:18.840Z,2.20
2018-04-04T18:05:46.296Z,3.70
2018-04-04T18:08:13.834Z,1.60
2018-04-04T18:10:41.233Z,2.00
2018-04-04T18:13:09.482Z,4.80
2018-04-04T18:15:36.945Z,2.03
2018-04-04T18:18:05.235Z,7.50
2018-04-04T18:20:32.768Z,5.70
2018-04-04T18:23:00.405Z,4.90
2018-04-04T18:25:27.865Z,4.90
2018-04-04T18:27:55.319Z,5.40
2018-04-04T18:30:22.804Z,8.53
2018-04-04T18:32:50.329Z,12.77
2018-04-04T18:35:17.932Z,6.43
2018-04-04T18:37:45.385Z,10.23
2018-04-04T18:40:12.864Z,3.33
2018-04-04T18:42:41.210Z,6.50
2018-04-04T18:45:08.636Z,1.57
2018-04-04T18:47:36.349Z,1.73
2018-04-04T18:50:05.337Z,1.70
2018-04-04T18:52:32.780Z,2.90
2018-04-04T18:55:00.325Z,2.15
2018-04-04T18:57:27.792Z,2.13
2018-04-04T18:59:55.244Z,2.40
2018-04-04T19:02:22.715Z,7.97
2018-04-04T19:04:50.231Z,7.93
2018-04-04T19:07:17.693Z,1.57
2018-04-04T19:09:45.214Z,2.70
2018-04-04T19:12:12.640Z,1.90
2018-04-04T19:14:40.108Z,2.50
2018-04-04T19:17:07.589Z,2.53
2018-04-04T19:19:35.840Z,1.83
2018-04-04T19:22:03.313Z,2.17
2018-04-04T19:24:30.768Z,5.90
2018-04-04T19:26:58.329Z,1.60
2018-04-04T19:29:25.795Z,1.77
2018-04-04T19:31:54.021Z,2.60
2018-04-04T19:34:21.484Z,3.63
2018-04-04T19:36:48.939Z,1.50
2018-04-04T19:39:16.415Z,1.67
2018-04-04T19:41:43.892Z,1.73
2018-04-04T19:44:12.120Z,2.50
2018-04-04T19:46:39.584Z,2.10
2018-04-04T19:49:07.039Z,2.07
2018-04-04T19:51:34.492Z,1.93
2018-04-04T19:54:01.959Z,2.07
2018-04-04T19:56:29.437Z,3.43
2018-04-04T19:58:56.904Z,3.40
2018-04-04T20:01:24.372Z,1.87
2018-04-04T20:03:52.618Z,2.93
2018-04-04T20:06:20.080Z,3.20
2018-04-04T20:08:47.532Z,1.63
2018-04-04T20:11:15.012Z,1.90
2018-04-04T20:13:42.466Z,2.60
2018-04-04T20:16:10.745Z,1.73
2018-04-04T20:18:38.209Z,2.10
2018-04-04T20:21:06.449Z,2.30
2018-04-04T20:23:33.907Z,1.83
2018-04-04T20:26:01.374Z,1.87
2018-04-04T20:28:28.832Z,3.37
2018-04-04T20:30:56.284Z,2.57
2018-04-04T20:33:23.735Z,2.60
2018-04-04T20:35:51.215Z,3.62
2018-04-04T20:38:18.656Z,3.23
2018-04-04T20:40:46.128Z,2.63
2018-04-04T20:43:13.569Z,2.83
2018-04-04T20:45:41.151Z,4.03
2018-04-04T20:48:08.596Z,3.10
2018-04-04T20:50:36.059Z,6.03
2018-04-04T20:53:05.013Z,3.10
2018-04-04T20:55:32.458Z,3.20
2018-04-04T20:57:59.920Z,2.93
2018-04-04T21:00:27.369Z,3.30
2018-04-04T21:02:54.834Z,3.43
2018-04-04T21:05:22.413Z,3.00
2018-04-04T21:07:49.900Z,3.00
2018-04-04T21:10:17.352Z,3.23
2018-04-04T21:12:44.815Z,3.23
2018-04-04T21:15:12.265Z,2.73
2018-04-04T21:17:39.725Z,2.67
2018-04-04T21:20:07.181Z,3.12
2018-04-04T21:22:34.640Z,2.60
2018-04-04T21:25:02.087Z,3.60
2018-04-04T21:27:29.540Z,2.73
2018-04-04T21:29:57.008Z,3.33
2018-04-04T21:32:24.462Z,3.30
2018-04-04T21:34:51.977Z,3.77
2018-04-04T21:37:19.440Z,3.30
2018-04-04T21:39:46.920Z,2.97
2018-04-04T21:42:14.373Z,3.03
2018-04-04T21:44:41.816Z,3.37
2018-04-04T21:47:09.274Z,2.33
2018-04-04T21:49:36.728Z,2.10
2018-04-04T21:52:04.175Z,1.70
2018-04-04T21:54:31.641Z,2.23
2018-04-04T21:56:59.081Z,2.90
2018-04-04T21:59:27.357Z,1.70
2018-04-04T22:01:54.807Z,1.63
2018-04-04T22:04:23.040Z,1.50
2018-04-04T22:06:50.482Z,1.47
2018-04-04T22:09:17.932Z,1.80
2018-04-04T22:11:45.376Z,1.60
2018-04-04T22:14:12.837Z,2.90
2018-04-04T22:16:40.283Z,1.40
2018-04-04T22:19:07.752Z,1.40
2018-04-04T22:21:35.193Z,1.70
2018-04-04T22:24:02.658Z,1.27
2018-04-04T22:26:30.104Z,1.13
2018-04-04T22:28:57.600Z,1.10
2018-04-04T22:31:25.094Z,1.50
2018-04-04T22:33:52.591Z,1.20
2018-04-04T22:36:20.076Z,3.33
2018-04-04T22:38:47.574Z,1.55
2018-04-04T22:41:15.090Z,1.20
2018-04-04T22:43:42.582Z,1.83
2018-04-04T22:46:10.029Z,1.00
2018-04-04T22:48:37.482Z,1.20
2018-04-04T22:51:04.936Z,1.20
2018-04-04T22:53:32.384Z,1.10
2018-04-04T22:55:59.843Z,1.20
2018-04-04T22:58:27.350Z,1.33
2018-04-04T23:00:55.605Z,1.17
2018-04-04T23:03:23.094Z,1.10
2018-04-04T23:05:50.570Z,1.10
2018-04-04T23:08:18.062Z,1.20
2018-04-04T23:10:45.974Z,1.10
2018-04-04T23:13:14.221Z,2.03
2018-04-04T23:15:42.470Z,1.20
2018-04-04T23:18:09.958Z,1.10
2018-04-04T23:20:37.448Z,2.37
2018-04-04T23:23:04.942Z,1.00
2018-04-04T23:25:32.439Z,1.30
2018-04-04T23:28:00.703Z,1.10
2018-04-04T23:30:28.211Z,1.40
2018-04-04T23:32:55.723Z,1.20
2018-04-04T23:35:23.502Z,1.30
2018-04-04T23:37:51.759Z,1.20
2018-04-04T23:40:19.270Z,1.20
2018-04-04T23:42:46.760Z,2.60
2018-04-04T23:45:14.261Z,1.20
2018-04-04T23:47:42.515Z,2.80
2018-04-04T23:50:10.015Z,1.20
2018-04-04T23:52:37.495Z,1.40
2018-04-04T23:55:05.750Z,1.10
2018-04-04T23:57:33.230Z,1.17
